Terminal Aerodrome Forecast
Issued by NWS

Home | Current Version | Previous Version | Text Only | Print | Product List | Glossary On
Versions: 1 2 3 4 5 6 7 8 9 10 11 12 13 14 15 16
000
FTUS41 KLWX 022320
TAFMTN
TAF
KMTN 022320Z 0300/0324 VRB03KT P6SM SCT050 BKN080
     FM031200 VRB03KT P6SM SCT015 BKN025
     FM031800 12006KT P6SM SCT025 OVC050
      AMD NOT SKED 0302/0312=

USA.gov is the U.S. government's official web portal to all federal, state and local government web resources and services.